sensor_id;sensor_type;location;lat;lon;timestamp;P1;durP1;ratioP1;P2;durP2;ratioP2
26908;SDS011;14477;51.038;4.588;2023-06-22T00:00:56;3.00;;;2.10;;
26908;SDS011;14477;51.038;4.588;2023-06-22T00:03:23;3.20;;;2.23;;
26908;SDS011;14477;51.038;4.588;2023-06-22T00:05:49;2.78;;;2.13;;
26908;SDS011;14477;51.038;4.588;2023-06-22T00:08:16;4.00;;;2.25;;
26908;SDS011;14477;51.038;4.588;2023-06-22T00:10:42;3.72;;;2.20;;
26908;SDS011;14477;51.038;4.588;2023-06-22T00:13:09;2.72;;;1.90;;
26908;SDS011;14477;51.038;4.588;2023-06-22T00:15:36;3.20;;;2.10;;
26908;SDS011;14477;51.038;4.588;2023-06-22T00:18:03;2.95;;;2.15;;
26908;SDS011;14477;51.038;4.588;2023-06-22T00:20:30;3.22;;;2.25;;
26908;SDS011;14477;51.038;4.588;2023-06-22T00:22:56;3.53;;;2.23;;
26908;SDS011;14477;51.038;4.588;2023-06-22T00:25:22;2.83;;;1.95;;
26908;SDS011;14477;51.038;4.588;2023-06-22T00:27:48;3.05;;;2.10;;
26908;SDS011;14477;51.038;4.588;2023-06-22T00:30:18;3.92;;;1.90;;
26908;SDS011;14477;51.038;4.588;2023-06-22T00:32:44;2.70;;;1.90;;
26908;SDS011;14477;51.038;4.588;2023-06-22T00:35:11;2.53;;;1.90;;
26908;SDS011;14477;51.038;4.588;2023-06-22T00:37:37;2.50;;;2.00;;
26908;SDS011;14477;51.038;4.588;2023-06-22T00:40:06;3.00;;;2.20;;
26908;SDS011;14477;51.038;4.588;2023-06-22T00:42:34;3.03;;;1.90;;
26908;SDS011;14477;51.038;4.588;2023-06-22T00:45:00;3.03;;;2.10;;
26908;SDS011;14477;51.038;4.588;2023-06-22T00:47:25;2.50;;;1.88;;
26908;SDS011;14477;51.038;4.588;2023-06-22T00:49:52;3.40;;;1.80;;
26908;SDS011;14477;51.038;4.588;2023-06-22T00:52:21;2.87;;;2.07;;
26908;SDS011;14477;51.038;4.588;2023-06-22T00:54:52;3.38;;;2.20;;
26908;SDS011;14477;51.038;4.588;2023-06-22T00:57:18;2.50;;;1.90;;
26908;SDS011;14477;51.038;4.588;2023-06-22T00:59:45;3.28;;;2.08;;
26908;SDS011;14477;51.038;4.588;2023-06-22T01:02:12;3.17;;;2.05;;
26908;SDS011;14477;51.038;4.588;2023-06-22T01:04:39;3.73;;;2.00;;
26908;SDS011;14477;51.038;4.588;2023-06-22T01:10:07;2.35;;;1.90;;
26908;SDS011;14477;51.038;4.588;2023-06-22T01:12:53;2.88;;;2.00;;
26908;SDS011;14477;51.038;4.588;2023-06-22T01:15:30;3.53;;;2.08;;
26908;SDS011;14477;51.038;4.588;2023-06-22T01:18:11;3.13;;;1.97;;
26908;SDS011;14477;51.038;4.588;2023-06-22T01:20:38;2.70;;;2.10;;
26908;SDS011;14477;51.038;4.588;2023-06-22T01:31:16;3.27;;;2.17;;
26908;SDS011;14477;51.038;4.588;2023-06-22T01:33:45;3.65;;;2.10;;
26908;SDS011;14477;51.038;4.588;2023-06-22T01:36:32;3.20;;;2.05;;
26908;SDS011;14477;51.038;4.588;2023-06-22T01:38:59;2.92;;;1.80;;
26908;SDS011;14477;51.038;4.588;2023-06-22T01:41:27;3.08;;;2.17;;
26908;SDS011;14477;51.038;4.588;2023-06-22T01:43:55;3.43;;;2.13;;
26908;SDS011;14477;51.038;4.588;2023-06-22T01:46:21;3.25;;;1.90;;
26908;SDS011;14477;51.038;4.588;2023-06-22T01:48:48;3.10;;;2.00;;
26908;SDS011;14477;51.038;4.588;2023-06-22T01:51:15;2.53;;;1.83;;
26908;SDS011;14477;51.038;4.588;2023-06-22T01:53:41;3.40;;;1.93;;
26908;SDS011;14477;51.038;4.588;2023-06-22T01:56:07;2.78;;;2.00;;
26908;SDS011;14477;51.038;4.588;2023-06-22T01:58:33;3.20;;;2.00;;
26908;SDS011;14477;51.038;4.588;2023-06-22T02:01:12;2.97;;;2.00;;
26908;SDS011;14477;51.038;4.588;2023-06-22T02:03:48;3.23;;;2.10;;
26908;SDS011;14477;51.038;4.588;2023-06-22T02:06:26;3.33;;;1.95;;
26908;SDS011;14477;51.038;4.588;2023-06-22T02:09:02;2.90;;;2.08;;
26908;SDS011;14477;51.038;4.588;2023-06-22T02:11:31;2.92;;;2.03;;
26908;SDS011;14477;51.038;4.588;2023-06-22T02:14:00;3.60;;;2.10;;
26908;SDS011;14477;51.038;4.588;2023-06-22T02:16:26;3.00;;;1.97;;
26908;SDS011;14477;51.038;4.588;2023-06-22T02:18:54;3.13;;;2.05;;
26908;SDS011;14477;51.038;4.588;2023-06-22T02:21:27;3.78;;;2.10;;
26908;SDS011;14477;51.038;4.588;2023-06-22T02:23:54;3.00;;;2.05;;
26908;SDS011;14477;51.038;4.588;2023-06-22T02:26:19;3.00;;;1.90;;
26908;SDS011;14477;51.038;4.588;2023-06-22T02:28:45;3.03;;;2.00;;
26908;SDS011;14477;51.038;4.588;2023-06-22T02:31:11;3.85;;;2.40;;
26908;SDS011;14477;51.038;4.588;2023-06-22T02:33:37;3.40;;;2.30;;
26908;SDS011;14477;51.038;4.588;2023-06-22T02:36:03;3.23;;;2.23;;
26908;SDS011;14477;51.038;4.588;2023-06-22T02:38:31;3.88;;;2.25;;
26908;SDS011;14477;51.038;4.588;2023-06-22T02:40:59;3.72;;;2.50;;
26908;SDS011;14477;51.038;4.588;2023-06-22T02:43:25;3.50;;;2.28;;
26908;SDS011;14477;51.038;4.588;2023-06-22T02:45:51;4.10;;;2.60;;
26908;SDS011;14477;51.038;4.588;2023-06-22T02:48:17;4.22;;;2.30;;
26908;SDS011;14477;51.038;4.588;2023-06-22T02:50:42;2.70;;;1.97;;
26908;SDS011;14477;51.038;4.588;2023-06-22T02:53:08;3.35;;;2.00;;
26908;SDS011;14477;51.038;4.588;2023-06-22T02:55:34;3.03;;;1.93;;
26908;SDS011;14477;51.038;4.588;2023-06-22T02:57:59;3.72;;;2.33;;
26908;SDS011;14477;51.038;4.588;2023-06-22T03:00:29;4.00;;;2.70;;
26908;SDS011;14477;51.038;4.588;2023-06-22T03:02:56;3.70;;;2.43;;
26908;SDS011;14477;51.038;4.588;2023-06-22T03:05:22;4.00;;;2.63;;
26908;SDS011;14477;51.038;4.588;2023-06-22T03:07:48;3.63;;;2.75;;
26908;SDS011;14477;51.038;4.588;2023-06-22T03:10:14;3.65;;;2.22;;
26908;SDS011;14477;51.038;4.588;2023-06-22T03:12:41;3.53;;;2.25;;
26908;SDS011;14477;51.038;4.588;2023-06-22T03:15:09;3.57;;;2.37;;
26908;SDS011;14477;51.038;4.588;2023-06-22T03:17:36;3.47;;;2.38;;
26908;SDS011;14477;51.038;4.588;2023-06-22T03:20:06;4.03;;;2.47;;
26908;SDS011;14477;51.038;4.588;2023-06-22T03:22:39;4.18;;;2.60;;
26908;SDS011;14477;51.038;4.588;2023-06-22T03:25:07;3.65;;;2.58;;
26908;SDS011;14477;51.038;4.588;2023-06-22T03:27:36;3.40;;;2.50;;
26908;SDS011;14477;51.038;4.588;2023-06-22T03:30:02;3.97;;;2.67;;
26908;SDS011;14477;51.038;4.588;2023-06-22T03:32:28;3.60;;;2.47;;
26908;SDS011;14477;51.038;4.588;2023-06-22T03:34:54;4.22;;;2.75;;
26908;SDS011;14477;51.038;4.588;2023-06-22T03:37:24;3.63;;;2.50;;
26908;SDS011;14477;51.038;4.588;2023-06-22T03:39:50;4.78;;;3.00;;
26908;SDS011;14477;51.038;4.588;2023-06-22T03:42:17;3.90;;;2.70;;
26908;SDS011;14477;51.038;4.588;2023-06-22T03:44:42;3.53;;;2.38;;
26908;SDS011;14477;51.038;4.588;2023-06-22T03:47:08;3.87;;;2.90;;
26908;SDS011;14477;51.038;4.588;2023-06-22T03:49:34;3.97;;;2.72;;
26908;SDS011;14477;51.038;4.588;2023-06-22T03:52:01;5.25;;;2.78;;
26908;SDS011;14477;51.038;4.588;2023-06-22T03:54:28;4.07;;;2.90;;
26908;SDS011;14477;51.038;4.588;2023-06-22T03:56:54;5.17;;;3.33;;
26908;SDS011;14477;51.038;4.588;2023-06-22T03:59:24;4.47;;;3.05;;
26908;SDS011;14477;51.038;4.588;2023-06-22T04:01:50;5.05;;;3.10;;
26908;SDS011;14477;51.038;4.588;2023-06-22T04:04:17;4.73;;;3.10;;
26908;SDS011;14477;51.038;4.588;2023-06-22T04:06:43;5.50;;;3.17;;
26908;SDS011;14477;51.038;4.588;2023-06-22T04:09:09;4.60;;;3.28;;
26908;SDS011;14477;51.038;4.588;2023-06-22T04:11:35;4.68;;;3.22;;
26908;SDS011;14477;51.038;4.588;2023-06-22T04:14:01;5.17;;;3.30;;
26908;SDS011;14477;51.038;4.588;2023-06-22T04:16:26;5.47;;;3.60;;
26908;SDS011;14477;51.038;4.588;2023-06-22T04:18:52;4.20;;;2.93;;
26908;SDS011;14477;51.038;4.588;2023-06-22T04:21:18;5.00;;;3.20;;
26908;SDS011;14477;51.038;4.588;2023-06-22T04:23:44;4.85;;;3.35;;
26908;SDS011;14477;51.038;4.588;2023-06-22T04:26:11;5.20;;;3.40;;
26908;SDS011;14477;51.038;4.588;2023-06-22T04:28:38;4.68;;;3.30;;
26908;SDS011;14477;51.038;4.588;2023-06-22T04:31:05;5.63;;;3.63;;
26908;SDS011;14477;51.038;4.588;2023-06-22T04:33:30;5.30;;;3.47;;
26908;SDS011;14477;51.038;4.588;2023-06-22T04:35:57;5.40;;;3.87;;
26908;SDS011;14477;51.038;4.588;2023-06-22T04:38:23;5.38;;;3.63;;
26908;SDS011;14477;51.038;4.588;2023-06-22T04:40:49;4.95;;;3.70;;
26908;SDS011;14477;51.038;4.588;2023-06-22T04:43:15;5.60;;;3.63;;
26908;SDS011;14477;51.038;4.588;2023-06-22T04:45:41;5.13;;;3.40;;
26908;SDS011;14477;51.038;4.588;2023-06-22T04:48:07;5.78;;;3.60;;
26908;SDS011;14477;51.038;4.588;2023-06-22T04:50:41;5.72;;;3.53;;
26908;SDS011;14477;51.038;4.588;2023-06-22T04:53:07;4.93;;;3.37;;
26908;SDS011;14477;51.038;4.588;2023-06-22T04:55:34;6.85;;;4.07;;
26908;SDS011;14477;51.038;4.588;2023-06-22T04:58:03;5.20;;;3.90;;
26908;SDS011;14477;51.038;4.588;2023-06-22T05:00:30;7.50;;;3.80;;
26908;SDS011;14477;51.038;4.588;2023-06-22T05:02:56;6.10;;;4.00;;
26908;SDS011;14477;51.038;4.588;2023-06-22T05:05:23;5.30;;;3.53;;
26908;SDS011;14477;51.038;4.588;2023-06-22T05:07:50;5.10;;;3.50;;
26908;SDS011;14477;51.038;4.588;2023-06-22T05:10:18;6.28;;;3.80;;
26908;SDS011;14477;51.038;4.588;2023-06-22T05:12:45;5.35;;;3.63;;
26908;SDS011;14477;51.038;4.588;2023-06-22T05:15:11;4.93;;;3.65;;
26908;SDS011;14477;51.038;4.588;2023-06-22T05:17:37;5.83;;;3.77;;
26908;SDS011;14477;51.038;4.588;2023-06-22T05:20:11;6.70;;;4.22;;
26908;SDS011;14477;51.038;4.588;2023-06-22T05:22:38;6.00;;;3.80;;
26908;SDS011;14477;51.038;4.588;2023-06-22T05:25:05;5.57;;;3.75;;
26908;SDS011;14477;51.038;4.588;2023-06-22T05:27:33;6.07;;;3.92;;
26908;SDS011;14477;51.038;4.588;2023-06-22T05:29:59;5.70;;;3.97;;
26908;SDS011;14477;51.038;4.588;2023-06-22T05:32:24;5.50;;;3.78;;
26908;SDS011;14477;51.038;4.588;2023-06-22T05:34:50;5.67;;;4.13;;
26908;SDS011;14477;51.038;4.588;2023-06-22T05:37:16;5.90;;;3.90;;
26908;SDS011;14477;51.038;4.588;2023-06-22T05:39:41;6.80;;;4.37;;
26908;SDS011;14477;51.038;4.588;2023-06-22T05:42:07;6.13;;;4.37;;
26908;SDS011;14477;51.038;4.588;2023-06-22T05:44:33;5.10;;;3.67;;
26908;SDS011;14477;51.038;4.588;2023-06-22T05:46:59;6.57;;;4.43;;
26908;SDS011;14477;51.038;4.588;2023-06-22T05:49:25;6.17;;;4.07;;
26908;SDS011;14477;51.038;4.588;2023-06-22T05:51:57;5.83;;;4.10;;
26908;SDS011;14477;51.038;4.588;2023-06-22T05:54:24;6.32;;;4.35;;
26908;SDS011;14477;51.038;4.588;2023-06-22T05:56:50;7.57;;;4.35;;
26908;SDS011;14477;51.038;4.588;2023-06-22T05:59:16;5.80;;;4.28;;
26908;SDS011;14477;51.038;4.588;2023-06-22T06:01:42;6.97;;;4.13;;
26908;SDS011;14477;51.038;4.588;2023-06-22T06:04:08;6.45;;;4.55;;
26908;SDS011;14477;51.038;4.588;2023-06-22T06:06:34;5.70;;;4.03;;
26908;SDS011;14477;51.038;4.588;2023-06-22T06:09:03;6.68;;;4.53;;
26908;SDS011;14477;51.038;4.588;2023-06-22T06:11:29;6.53;;;4.28;;
26908;SDS011;14477;51.038;4.588;2023-06-22T06:13:55;6.77;;;4.20;;
26908;SDS011;14477;51.038;4.588;2023-06-22T06:16:21;7.65;;;4.65;;
26908;SDS011;14477;51.038;4.588;2023-06-22T06:18:47;6.15;;;4.30;;
26908;SDS011;14477;51.038;4.588;2023-06-22T06:21:16;7.40;;;4.72;;
26908;SDS011;14477;51.038;4.588;2023-06-22T06:23:42;7.00;;;4.67;;
26908;SDS011;14477;51.038;4.588;2023-06-22T06:26:08;7.03;;;4.80;;
26908;SDS011;14477;51.038;4.588;2023-06-22T06:28:34;7.90;;;4.90;;
26908;SDS011;14477;51.038;4.588;2023-06-22T06:31:00;7.47;;;4.85;;
26908;SDS011;14477;51.038;4.588;2023-06-22T06:33:26;6.57;;;4.60;;
26908;SDS011;14477;51.038;4.588;2023-06-22T06:35:52;7.40;;;5.10;;
26908;SDS011;14477;51.038;4.588;2023-06-22T06:38:18;6.78;;;4.88;;
26908;SDS011;14477;51.038;4.588;2023-06-22T06:40:43;6.40;;;4.80;;
26908;SDS011;14477;51.038;4.588;2023-06-22T06:43:10;6.28;;;4.70;;
26908;SDS011;14477;51.038;4.588;2023-06-22T06:45:36;7.03;;;4.68;;
26908;SDS011;14477;51.038;4.588;2023-06-22T06:48:01;7.03;;;4.40;;
26908;SDS011;14477;51.038;4.588;2023-06-22T06:50:27;6.18;;;5.10;;
26908;SDS011;14477;51.038;4.588;2023-06-22T06:52:53;6.63;;;4.75;;
26908;SDS011;14477;51.038;4.588;2023-06-22T06:55:19;7.73;;;5.43;;
26908;SDS011;14477;51.038;4.588;2023-06-22T06:57:45;6.95;;;4.90;;
26908;SDS011;14477;51.038;4.588;2023-06-22T07:00:13;7.22;;;5.05;;
26908;SDS011;14477;51.038;4.588;2023-06-22T07:02:40;7.25;;;5.30;;
26908;SDS011;14477;51.038;4.588;2023-06-22T07:05:08;7.07;;;5.43;;
26908;SDS011;14477;51.038;4.588;2023-06-22T07:07:34;6.60;;;5.00;;
26908;SDS011;14477;51.038;4.588;2023-06-22T07:10:00;6.82;;;4.95;;
26908;SDS011;14477;51.038;4.588;2023-06-22T07:12:26;8.23;;;5.13;;
26908;SDS011;14477;51.038;4.588;2023-06-22T07:14:52;8.13;;;5.60;;
26908;SDS011;14477;51.038;4.588;2023-06-22T07:17:19;7.13;;;5.43;;
26908;SDS011;14477;51.038;4.588;2023-06-22T07:19:45;8.52;;;5.30;;
26908;SDS011;14477;51.038;4.588;2023-06-22T07:22:10;6.83;;;5.07;;
26908;SDS011;14477;51.038;4.588;2023-06-22T07:24:36;8.57;;;5.28;;
26908;SDS011;14477;51.038;4.588;2023-06-22T07:27:02;6.70;;;5.43;;
26908;SDS011;14477;51.038;4.588;2023-06-22T07:29:29;7.93;;;5.53;;
26908;SDS011;14477;51.038;4.588;2023-06-22T07:31:54;7.30;;;5.38;;
26908;SDS011;14477;51.038;4.588;2023-06-22T07:34:21;7.68;;;5.70;;
26908;SDS011;14477;51.038;4.588;2023-06-22T07:36:47;7.10;;;5.17;;
26908;SDS011;14477;51.038;4.588;2023-06-22T07:39:13;6.75;;;5.13;;
26908;SDS011;14477;51.038;4.588;2023-06-22T07:41:40;7.65;;;5.40;;
26908;SDS011;14477;51.038;4.588;2023-06-22T07:44:06;7.73;;;5.43;;
26908;SDS011;14477;51.038;4.588;2023-06-22T07:46:32;6.65;;;4.82;;
26908;SDS011;14477;51.038;4.588;2023-06-22T07:48:58;7.30;;;5.10;;
26908;SDS011;14477;51.038;4.588;2023-06-22T07:51:24;8.13;;;5.60;;
26908;SDS011;14477;51.038;4.588;2023-06-22T07:53:50;7.82;;;5.38;;
26908;SDS011;14477;51.038;4.588;2023-06-22T07:56:16;7.00;;;5.30;;
26908;SDS011;14477;51.038;4.588;2023-06-22T07:58:45;6.82;;;5.03;;
26908;SDS011;14477;51.038;4.588;2023-06-22T08:01:11;7.10;;;5.03;;
26908;SDS011;14477;51.038;4.588;2023-06-22T08:03:37;6.50;;;4.78;;
26908;SDS011;14477;51.038;4.588;2023-06-22T08:06:04;7.60;;;5.40;;
26908;SDS011;14477;51.038;4.588;2023-06-22T08:08:31;6.70;;;5.03;;
26908;SDS011;14477;51.038;4.588;2023-06-22T08:10:57;7.40;;;5.38;;
26908;SDS011;14477;51.038;4.588;2023-06-22T08:13:23;6.18;;;4.88;;
26908;SDS011;14477;51.038;4.588;2023-06-22T08:15:48;7.23;;;4.57;;
26908;SDS011;14477;51.038;4.588;2023-06-22T08:18:14;6.13;;;4.47;;
26908;SDS011;14477;51.038;4.588;2023-06-22T08:20:41;5.70;;;4.57;;
26908;SDS011;14477;51.038;4.588;2023-06-22T08:23:07;6.90;;;4.83;;
26908;SDS011;14477;51.038;4.588;2023-06-22T08:25:33;5.75;;;4.30;;
26908;SDS011;14477;51.038;4.588;2023-06-22T08:27:59;6.50;;;4.47;;
26908;SDS011;14477;51.038;4.588;2023-06-22T08:30:25;5.43;;;4.30;;
26908;SDS011;14477;51.038;4.588;2023-06-22T08:32:52;5.60;;;4.13;;
26908;SDS011;14477;51.038;4.588;2023-06-22T08:35:19;5.78;;;4.05;;
26908;SDS011;14477;51.038;4.588;2023-06-22T08:37:45;5.22;;;4.18;;
26908;SDS011;14477;51.038;4.588;2023-06-22T08:40:20;5.03;;;4.10;;
26908;SDS011;14477;51.038;4.588;2023-06-22T08:42:47;6.43;;;3.67;;
26908;SDS011;14477;51.038;4.588;2023-06-22T08:45:13;5.25;;;3.80;;
26908;SDS011;14477;51.038;4.588;2023-06-22T08:47:40;5.63;;;3.70;;
26908;SDS011;14477;51.038;4.588;2023-06-22T08:50:06;4.72;;;3.60;;
26908;SDS011;14477;51.038;4.588;2023-06-22T08:52:36;4.63;;;3.67;;
26908;SDS011;14477;51.038;4.588;2023-06-22T08:55:05;4.60;;;3.40;;
26908;SDS011;14477;51.038;4.588;2023-06-22T08:57:32;5.13;;;3.65;;
26908;SDS011;14477;51.038;4.588;2023-06-22T08:59:57;4.70;;;3.63;;
26908;SDS011;14477;51.038;4.588;2023-06-22T09:02:27;4.82;;;3.70;;
26908;SDS011;14477;51.038;4.588;2023-06-22T09:04:56;4.50;;;3.53;;
26908;SDS011;14477;51.038;4.588;2023-06-22T09:07:23;4.57;;;3.65;;
26908;SDS011;14477;51.038;4.588;2023-06-22T09:09:50;5.13;;;3.78;;
26908;SDS011;14477;51.038;4.588;2023-06-22T09:12:16;4.93;;;3.60;;
26908;SDS011;14477;51.038;4.588;2023-06-22T09:14:45;4.93;;;3.35;;
26908;SDS011;14477;51.038;4.588;2023-06-22T09:17:12;5.07;;;3.47;;
26908;SDS011;14477;51.038;4.588;2023-06-22T09:19:38;5.30;;;3.50;;
26908;SDS011;14477;51.038;4.588;2023-06-22T09:22:04;5.53;;;3.83;;
26908;SDS011;14477;51.038;4.588;2023-06-22T09:24:31;4.35;;;3.55;;
26908;SDS011;14477;51.038;4.588;2023-06-22T09:26:57;5.07;;;3.63;;
26908;SDS011;14477;51.038;4.588;2023-06-22T09:29:23;5.50;;;3.57;;
26908;SDS011;14477;51.038;4.588;2023-06-22T09:31:49;4.60;;;3.47;;
26908;SDS011;14477;51.038;4.588;2023-06-22T09:34:15;6.17;;;3.77;;
26908;SDS011;14477;51.038;4.588;2023-06-22T09:36:45;4.35;;;3.45;;
26908;SDS011;14477;51.038;4.588;2023-06-22T09:39:11;6.70;;;3.65;;
26908;SDS011;14477;51.038;4.588;2023-06-22T09:41:37;4.93;;;3.63;;
26908;SDS011;14477;51.038;4.588;2023-06-22T09:44:02;5.53;;;3.60;;
26908;SDS011;14477;51.038;4.588;2023-06-22T09:46:28;5.00;;;3.38;;
26908;SDS011;14477;51.038;4.588;2023-06-22T09:48:54;5.70;;;3.70;;
26908;SDS011;14477;51.038;4.588;2023-06-22T09:51:20;5.15;;;3.42;;
26908;SDS011;14477;51.038;4.588;2023-06-22T09:53:47;4.90;;;3.30;;
26908;SDS011;14477;51.038;4.588;2023-06-22T09:56:13;5.00;;;3.47;;
26908;SDS011;14477;51.038;4.588;2023-06-22T09:58:42;5.20;;;3.70;;
26908;SDS011;14477;51.038;4.588;2023-06-22T10:01:08;6.57;;;4.15;;
26908;SDS011;14477;51.038;4.588;2023-06-22T10:03:35;6.47;;;4.38;;
26908;SDS011;14477;51.038;4.588;2023-06-22T10:06:01;6.33;;;4.40;;
26908;SDS011;14477;51.038;4.588;2023-06-22T10:08:26;6.18;;;4.32;;
26908;SDS011;14477;51.038;4.588;2023-06-22T10:10:52;8.38;;;4.72;;
26908;SDS011;14477;51.038;4.588;2023-06-22T10:13:18;5.87;;;4.43;;
26908;SDS011;14477;51.038;4.588;2023-06-22T10:15:44;5.90;;;4.57;;
26908;SDS011;14477;51.038;4.588;2023-06-22T10:18:16;5.82;;;4.40;;
26908;SDS011;14477;51.038;4.588;2023-06-22T10:20:42;6.82;;;4.78;;
26908;SDS011;14477;51.038;4.588;2023-06-22T10:23:08;6.73;;;4.67;;
26908;SDS011;14477;51.038;4.588;2023-06-22T10:25:34;6.95;;;4.95;;
26908;SDS011;14477;51.038;4.588;2023-06-22T10:27:59;7.37;;;4.80;;
26908;SDS011;14477;51.038;4.588;2023-06-22T10:30:25;7.35;;;4.55;;
26908;SDS011;14477;51.038;4.588;2023-06-22T10:32:51;7.03;;;5.30;;
26908;SDS011;14477;51.038;4.588;2023-06-22T10:35:16;7.50;;;5.03;;
26908;SDS011;14477;51.038;4.588;2023-06-22T10:37:43;7.30;;;5.27;;
26908;SDS011;14477;51.038;4.588;2023-06-22T10:40:09;7.20;;;4.95;;
26908;SDS011;14477;51.038;4.588;2023-06-22T10:42:36;7.45;;;5.30;;
26908;SDS011;14477;51.038;4.588;2023-06-22T10:45:02;7.70;;;5.63;;
26908;SDS011;14477;51.038;4.588;2023-06-22T10:47:28;7.10;;;5.07;;
26908;SDS011;14477;51.038;4.588;2023-06-22T10:49:54;8.85;;;6.22;;
26908;SDS011;14477;51.038;4.588;2023-06-22T10:52:19;8.43;;;5.57;;
26908;SDS011;14477;51.038;4.588;2023-06-22T10:54:45;8.85;;;6.30;;
26908;SDS011;14477;51.038;4.588;2023-06-22T10:57:11;8.20;;;5.97;;
26908;SDS011;14477;51.038;4.588;2023-06-22T10:59:36;9.95;;;6.97;;
26908;SDS011;14477;51.038;4.588;2023-06-22T11:02:02;9.97;;;6.77;;
26908;SDS011;14477;51.038;4.588;2023-06-22T11:04:28;15.90;;;6.82;;
26908;SDS011;14477;51.038;4.588;2023-06-22T11:06:53;11.63;;;6.33;;
26908;SDS011;14477;51.038;4.588;2023-06-22T11:09:21;10.70;;;7.30;;
26908;SDS011;14477;51.038;4.588;2023-06-22T11:11:47;11.05;;;6.53;;
26908;SDS011;14477;51.038;4.588;2023-06-22T11:14:14;9.55;;;6.70;;
26908;SDS011;14477;51.038;4.588;2023-06-22T11:16:40;10.60;;;6.90;;
26908;SDS011;14477;51.038;4.588;2023-06-22T11:19:05;10.38;;;6.93;;
26908;SDS011;14477;51.038;4.588;2023-06-22T11:21:31;10.20;;;6.83;;
26908;SDS011;14477;51.038;4.588;2023-06-22T11:23:58;9.88;;;6.85;;
26908;SDS011;14477;51.038;4.588;2023-06-22T11:26:24;9.20;;;6.47;;
26908;SDS011;14477;51.038;4.588;2023-06-22T11:28:52;8.83;;;6.20;;
26908;SDS011;14477;51.038;4.588;2023-06-22T11:31:18;9.77;;;6.60;;
26908;SDS011;14477;51.038;4.588;2023-06-22T11:33:44;8.70;;;6.32;;
26908;SDS011;14477;51.038;4.588;2023-06-22T11:36:11;10.90;;;7.15;;
26908;SDS011;14477;51.038;4.588;2023-06-22T11:38:37;10.07;;;7.10;;
26908;SDS011;14477;51.038;4.588;2023-06-22T11:41:05;9.40;;;6.32;;
26908;SDS011;14477;51.038;4.588;2023-06-22T11:43:31;9.55;;;6.65;;
26908;SDS011;14477;51.038;4.588;2023-06-22T11:45:57;8.87;;;6.50;;
26908;SDS011;14477;51.038;4.588;2023-06-22T11:48:25;11.35;;;7.40;;
26908;SDS011;14477;51.038;4.588;2023-06-22T11:50:51;11.18;;;7.60;;
26908;SDS011;14477;51.038;4.588;2023-06-22T11:53:17;10.60;;;7.53;;
26908;SDS011;14477;51.038;4.588;2023-06-22T11:55:43;10.60;;;7.05;;
26908;SDS011;14477;51.038;4.588;2023-06-22T11:58:09;11.48;;;7.38;;
26908;SDS011;14477;51.038;4.588;2023-06-22T12:00:35;11.00;;;7.40;;
26908;SDS011;14477;51.038;4.588;2023-06-22T12:03:00;11.70;;;7.95;;
26908;SDS011;14477;51.038;4.588;2023-06-22T12:05:26;11.17;;;7.67;;
26908;SDS011;14477;51.038;4.588;2023-06-22T12:07:55;10.30;;;7.45;;
26908;SDS011;14477;51.038;4.588;2023-06-22T12:10:21;12.90;;;8.07;;
26908;SDS011;14477;51.038;4.588;2023-06-22T12:12:48;12.77;;;8.05;;
26908;SDS011;14477;51.038;4.588;2023-06-22T12:15:14;12.80;;;7.50;;
26908;SDS011;14477;51.038;4.588;2023-06-22T12:17:40;13.10;;;8.98;;
26908;SDS011;14477;51.038;4.588;2023-06-22T12:20:06;13.15;;;8.90;;
26908;SDS011;14477;51.038;4.588;2023-06-22T12:22:33;12.98;;;8.30;;
26908;SDS011;14477;51.038;4.588;2023-06-22T12:24:59;12.57;;;8.45;;
26908;SDS011;14477;51.038;4.588;2023-06-22T12:27:25;12.07;;;8.13;;
26908;SDS011;14477;51.038;4.588;2023-06-22T12:29:51;12.13;;;8.65;;
26908;SDS011;14477;51.038;4.588;2023-06-22T12:32:17;12.02;;;7.95;;
26908;SDS011;14477;51.038;4.588;2023-06-22T12:34:43;12.70;;;8.70;;
26908;SDS011;14477;51.038;4.588;2023-06-22T12:37:09;11.63;;;8.73;;
26908;SDS011;14477;51.038;4.588;2023-06-22T12:39:35;13.30;;;8.95;;
26908;SDS011;14477;51.038;4.588;2023-06-22T12:42:00;13.17;;;8.80;;
26908;SDS011;14477;51.038;4.588;2023-06-22T12:44:26;14.27;;;9.23;;
26908;SDS011;14477;51.038;4.588;2023-06-22T12:46:52;12.13;;;8.90;;
26908;SDS011;14477;51.038;4.588;2023-06-22T12:49:18;13.43;;;9.17;;
26908;SDS011;14477;51.038;4.588;2023-06-22T12:51:43;13.25;;;9.43;;
26908;SDS011;14477;51.038;4.588;2023-06-22T12:54:10;13.23;;;9.20;;
26908;SDS011;14477;51.038;4.588;2023-06-22T12:56:36;12.70;;;8.60;;
26908;SDS011;14477;51.038;4.588;2023-06-22T12:59:03;14.90;;;8.75;;
26908;SDS011;14477;51.038;4.588;2023-06-22T13:01:30;12.68;;;8.50;;
26908;SDS011;14477;51.038;4.588;2023-06-22T13:03:56;12.18;;;8.77;;
26908;SDS011;14477;51.038;4.588;2023-06-22T13:06:26;11.10;;;8.07;;
26908;SDS011;14477;51.038;4.588;2023-06-22T13:08:51;11.43;;;8.27;;
26908;SDS011;14477;51.038;4.588;2023-06-22T13:11:17;13.13;;;8.57;;
26908;SDS011;14477;51.038;4.588;2023-06-22T13:13:44;11.27;;;7.87;;
26908;SDS011;14477;51.038;4.588;2023-06-22T13:16:11;11.60;;;8.27;;
26908;SDS011;14477;51.038;4.588;2023-06-22T13:18:36;13.98;;;9.23;;
26908;SDS011;14477;51.038;4.588;2023-06-22T13:21:03;11.40;;;8.20;;
26908;SDS011;14477;51.038;4.588;2023-06-22T13:23:29;11.70;;;8.50;;
26908;SDS011;14477;51.038;4.588;2023-06-22T13:25:54;12.30;;;8.83;;
26908;SDS011;14477;51.038;4.588;2023-06-22T13:28:20;13.18;;;9.00;;
26908;SDS011;14477;51.038;4.588;2023-06-22T13:30:46;11.75;;;8.68;;
26908;SDS011;14477;51.038;4.588;2023-06-22T13:33:13;12.13;;;8.90;;
26908;SDS011;14477;51.038;4.588;2023-06-22T13:35:39;11.45;;;8.15;;
26908;SDS011;14477;51.038;4.588;2023-06-22T13:38:07;13.90;;;8.63;;
26908;SDS011;14477;51.038;4.588;2023-06-22T13:40:34;11.98;;;8.30;;
26908;SDS011;14477;51.038;4.588;2023-06-22T13:43:00;12.65;;;8.80;;
26908;SDS011;14477;51.038;4.588;2023-06-22T13:45:26;10.70;;;7.63;;
26908;SDS011;14477;51.038;4.588;2023-06-22T13:47:52;10.65;;;8.32;;
26908;SDS011;14477;51.038;4.588;2023-06-22T13:50:18;12.10;;;8.25;;
26908;SDS011;14477;51.038;4.588;2023-06-22T13:52:44;12.20;;;8.40;;
26908;SDS011;14477;51.038;4.588;2023-06-22T13:55:09;10.23;;;7.17;;
26908;SDS011;14477;51.038;4.588;2023-06-22T13:57:35;13.97;;;8.60;;
26908;SDS011;14477;51.038;4.588;2023-06-22T14:00:02;12.53;;;8.33;;
26908;SDS011;14477;51.038;4.588;2023-06-22T14:02:30;12.68;;;8.13;;
26908;SDS011;14477;51.038;4.588;2023-06-22T14:04:56;14.02;;;8.80;;
26908;SDS011;14477;51.038;4.588;2023-06-22T14:07:21;11.90;;;8.40;;
26908;SDS011;14477;51.038;4.588;2023-06-22T14:09:49;11.57;;;8.65;;
26908;SDS011;14477;51.038;4.588;2023-06-22T14:12:15;11.82;;;8.30;;
26908;SDS011;14477;51.038;4.588;2023-06-22T14:14:42;13.40;;;8.63;;
26908;SDS011;14477;51.038;4.588;2023-06-22T14:17:08;11.67;;;7.93;;
26908;SDS011;14477;51.038;4.588;2023-06-22T14:19:35;12.38;;;8.35;;
26908;SDS011;14477;51.038;4.588;2023-06-22T14:22:01;12.32;;;8.27;;
26908;SDS011;14477;51.038;4.588;2023-06-22T14:24:27;15.05;;;8.63;;
26908;SDS011;14477;51.038;4.588;2023-06-22T14:26:53;12.70;;;8.50;;
26908;SDS011;14477;51.038;4.588;2023-06-22T14:29:19;12.77;;;8.63;;
26908;SDS011;14477;51.038;4.588;2023-06-22T14:31:45;12.65;;;8.73;;
26908;SDS011;14477;51.038;4.588;2023-06-22T14:34:12;11.77;;;8.10;;
26908;SDS011;14477;51.038;4.588;2023-06-22T14:36:38;12.05;;;8.63;;
26908;SDS011;14477;51.038;4.588;2023-06-22T14:39:03;12.02;;;8.63;;
26908;SDS011;14477;51.038;4.588;2023-06-22T14:41:32;12.60;;;8.17;;
26908;SDS011;14477;51.038;4.588;2023-06-22T14:43:58;12.32;;;8.80;;
26908;SDS011;14477;51.038;4.588;2023-06-22T14:46:24;11.95;;;8.88;;
26908;SDS011;14477;51.038;4.588;2023-06-22T14:48:49;12.00;;;8.63;;
26908;SDS011;14477;51.038;4.588;2023-06-22T14:51:15;12.20;;;8.85;;
26908;SDS011;14477;51.038;4.588;2023-06-22T14:53:42;13.50;;;8.97;;